createdAt,value
2023-03-05T00:01:26.651Z,4.90
2023-03-05T00:06:26.613Z,4.91
2023-03-05T00:11:26.531Z,4.91
2023-03-05T00:16:26.545Z,4.89
2023-03-05T00:21:26.404Z,4.86
2023-03-05T00:26:26.370Z,4.83
2023-03-05T00:31:26.312Z,4.80
2023-03-05T00:36:26.249Z,4.77
2023-03-05T00:41:26.174Z,4.76
2023-03-05T00:46:26.127Z,4.75
2023-03-05T00:51:26.019Z,4.73
2023-03-05T00:56:25.974Z,4.71
2023-03-05T01:01:25.891Z,4.68
2023-03-05T01:06:34.286Z,4.64
2023-03-05T01:11:26.682Z,4.60
2023-03-05T01:16:26.645Z,4.57
2023-03-05T01:21:26.535Z,4.56
2023-03-05T01:26:26.463Z,4.56
2023-03-05T01:31:26.436Z,4.57
2023-03-05T01:36:26.327Z,4.57
2023-03-05T01:41:26.272Z,4.58
2023-03-05T01:46:26.230Z,4.59
2023-03-05T01:51:26.159Z,4.59
2023-03-05T01:56:26.101Z,4.57
2023-03-05T02:01:26.121Z,4.54
2023-03-05T02:06:25.936Z,4.51
2023-03-05T02:11:25.889Z,4.47
2023-03-05T02:16:25.819Z,4.44
2023-03-05T02:21:25.842Z,4.42
2023-03-05T02:26:25.685Z,4.41
2023-03-05T02:31:25.706Z,4.40
2023-03-05T02:36:25.567Z,4.39
2023-03-05T02:41:25.522Z,4.39
2023-03-05T02:46:25.481Z,4.40
2023-03-05T02:51:25.384Z,4.41
2023-03-05T02:56:25.295Z,4.42
2023-03-05T03:01:25.347Z,4.43
2023-03-05T03:06:25.167Z,4.44
2023-03-05T03:11:25.134Z,4.44
2023-03-05T03:16:25.166Z,4.44
2023-03-05T03:21:25.006Z,4.43
2023-03-05T03:26:24.909Z,4.41
2023-03-05T03:31:24.863Z,4.39
2023-03-05T03:36:24.792Z,4.35
2023-03-05T03:41:24.722Z,4.32
2023-03-05T03:46:24.748Z,4.28
2023-03-05T03:51:24.644Z,4.26
2023-03-05T03:56:24.536Z,4.23
2023-03-05T04:01:24.803Z,4.21
2023-03-05T04:06:24.403Z,4.19
2023-03-05T04:11:24.377Z,4.17
2023-03-05T04:16:24.298Z,4.15
2023-03-05T04:21:24.251Z,4.15
2023-03-05T04:26:24.235Z,4.14
2023-03-05T04:31:24.108Z,4.13
2023-03-05T04:36:24.039Z,4.11
2023-03-05T04:41:23.994Z,4.09
2023-03-05T04:46:23.962Z,4.07
2023-03-05T04:51:23.852Z,4.04
2023-03-05T04:56:23.770Z,4.03
2023-03-05T05:01:23.722Z,4.01
2023-03-05T05:06:23.628Z,4.00
2023-03-05T05:11:23.615Z,3.98
2023-03-05T05:16:23.522Z,3.96
2023-03-05T05:21:23.442Z,3.94
2023-03-05T05:26:23.368Z,3.92
2023-03-05T05:31:23.341Z,3.90
2023-03-05T05:36:23.247Z,3.88
2023-03-05T05:41:23.219Z,3.86
2023-03-05T05:46:23.259Z,3.85
2023-03-05T05:51:23.084Z,3.83
2023-03-05T05:56:22.994Z,3.82
2023-03-05T06:01:22.923Z,3.82
2023-03-05T06:06:22.879Z,3.83
2023-03-05T06:11:22.828Z,3.84
2023-03-05T06:16:22.750Z,3.85
2023-03-05T06:21:22.700Z,3.86
2023-03-05T06:26:23.378Z,3.88
2023-03-05T06:31:22.569Z,3.89
2023-03-05T06:36:22.496Z,3.89
2023-03-05T06:41:22.445Z,3.89
2023-03-05T06:46:22.394Z,3.89
2023-03-05T06:51:22.284Z,3.91
2023-03-05T06:56:22.248Z,3.93
2023-03-05T07:01:43.174Z,3.96
2023-03-05T07:06:35.587Z,3.99
2023-03-05T07:11:35.543Z,4.01
2023-03-05T07:16:35.442Z,4.06
2023-03-05T07:21:38.204Z,4.11
2023-03-05T07:26:35.337Z,4.16
2023-03-05T07:31:35.327Z,4.20
2023-03-05T07:36:35.341Z,4.26
2023-03-05T07:41:35.167Z,4.31
2023-03-05T07:46:35.149Z,4.35
2023-03-05T07:51:35.022Z,4.38
2023-03-05T07:56:35.511Z,4.38
2023-03-05T08:01:34.906Z,4.36
2023-03-05T08:06:34.866Z,4.32
2023-03-05T08:11:34.786Z,4.30
2023-03-05T08:16:34.694Z,4.31
2023-03-05T08:21:34.644Z,4.33
2023-03-05T08:26:34.622Z,4.38
2023-03-05T08:31:34.603Z,4.46
2023-03-05T08:36:35.240Z,4.56
2023-03-05T08:41:34.411Z,4.65
2023-03-05T08:46:34.383Z,4.72
2023-03-05T08:51:34.257Z,4.81
2023-03-05T08:56:34.180Z,4.93
2023-03-05T09:01:34.212Z,5.06
2023-03-05T09:06:34.108Z,5.18
2023-03-05T09:11:33.979Z,5.28
2023-03-05T09:16:33.970Z,5.39
2023-03-05T09:21:33.848Z,5.51
2023-03-05T09:26:33.787Z,5.72
2023-03-05T09:31:33.722Z,6.10
2023-03-05T09:36:33.672Z,6.71
2023-03-05T09:41:33.588Z,7.64
2023-03-05T09:46:33.533Z,9.57
2023-03-05T09:51:33.460Z,11.30
2023-03-05T09:56:33.419Z,11.71
2023-03-05T10:01:33.347Z,11.43
2023-03-05T10:06:33.260Z,10.96
2023-03-05T10:11:44.214Z,10.43
2023-03-05T10:16:33.159Z,9.89
2023-03-05T10:21:33.067Z,9.39
2023-03-05T10:26:33.020Z,8.88
2023-03-05T10:31:32.978Z,8.38
2023-03-05T10:36:32.914Z,7.90
2023-03-05T10:41:32.795Z,7.50
2023-03-05T10:46:32.771Z,7.21
2023-03-05T10:51:32.676Z,7.03
2023-03-05T10:56:32.657Z,7.00
2023-03-05T11:01:32.548Z,7.17
2023-03-05T11:06:32.478Z,7.47
2023-03-05T11:11:32.395Z,7.86
2023-03-05T11:16:32.378Z,8.25
2023-03-05T11:21:32.270Z,8.51
2023-03-05T11:26:32.242Z,8.58
2023-03-05T11:31:32.135Z,8.57
2023-03-05T11:36:32.109Z,8.70
2023-03-05T11:41:32.004Z,9.22
2023-03-05T11:46:32.097Z,9.76
2023-03-05T11:51:31.869Z,9.96
2023-03-05T11:56:31.838Z,9.83
2023-03-05T12:01:31.916Z,9.51
2023-03-05T12:06:31.710Z,9.11
2023-03-05T12:11:31.622Z,8.67
2023-03-05T12:16:31.590Z,8.27
2023-03-05T12:21:31.506Z,7.97
2023-03-05T12:26:31.473Z,7.75
2023-03-05T12:31:31.373Z,7.64
2023-03-05T12:36:31.304Z,7.65
2023-03-05T12:41:33.028Z,7.68
2023-03-05T12:46:31.228Z,7.66
2023-03-05T12:51:31.101Z,7.58
2023-03-05T12:56:31.067Z,7.43
2023-03-05T13:01:30.964Z,7.29
2023-03-05T13:06:30.910Z,7.21
2023-03-05T13:11:30.822Z,7.21
2023-03-05T13:16:30.800Z,7.27
2023-03-05T13:21:30.680Z,7.37
2023-03-05T13:26:53.327Z,7.46
2023-03-05T13:31:45.781Z,7.49
2023-03-05T13:36:45.650Z,7.52
2023-03-05T13:41:45.596Z,7.58
2023-03-05T13:46:45.542Z,7.66
2023-03-05T13:51:45.445Z,7.77
2023-03-05T13:56:45.393Z,7.87
2023-03-05T14:01:45.345Z,7.88
2023-03-05T14:06:45.258Z,7.80
2023-03-05T14:11:45.202Z,7.68
2023-03-05T14:16:45.171Z,7.57
2023-03-05T14:21:45.071Z,7.45
2023-03-05T14:26:45.000Z,7.32
2023-03-05T14:31:44.943Z,7.20
2023-03-05T14:36:44.865Z,7.08
2023-03-05T14:41:44.856Z,6.98
2023-03-05T14:46:44.728Z,6.88
2023-03-05T14:51:44.693Z,6.81
2023-03-05T14:56:44.605Z,6.73
2023-03-05T15:01:44.609Z,6.65
2023-03-05T15:06:44.484Z,6.58
2023-03-05T15:11:44.435Z,6.50
2023-03-05T15:16:44.350Z,6.42
2023-03-05T15:21:44.342Z,6.33
2023-03-05T15:26:44.182Z,6.24
2023-03-05T15:31:44.141Z,6.15
2023-03-05T15:36:44.085Z,6.09
2023-03-05T15:41:44.022Z,6.03
2023-03-05T15:46:44.032Z,5.98
2023-03-05T15:51:43.882Z,5.93
2023-03-05T15:56:43.819Z,5.89
2023-03-05T16:01:43.774Z,5.85
2023-03-05T16:06:43.682Z,5.82
2023-03-05T16:11:43.615Z,5.79
2023-03-05T16:16:43.518Z,5.77
2023-03-05T16:21:43.521Z,5.75
2023-03-05T16:26:43.424Z,5.73
2023-03-05T16:31:43.498Z,5.70
2023-03-05T16:36:43.310Z,5.67
2023-03-05T16:41:43.233Z,5.64
2023-03-05T16:46:43.194Z,5.61
2023-03-05T16:51:43.114Z,5.57
2023-03-05T16:56:43.058Z,5.52
2023-03-05T17:01:42.965Z,5.47
2023-03-05T17:06:42.910Z,5.42
2023-03-05T17:11:42.862Z,5.37
2023-03-05T17:16:42.878Z,5.32
2023-03-05T17:21:42.894Z,5.28
2023-03-05T17:26:42.630Z,5.24
2023-03-05T17:31:42.656Z,5.21
2023-03-05T17:36:42.523Z,5.18
2023-03-05T17:41:42.476Z,5.16
2023-03-05T17:46:42.400Z,5.14
2023-03-05T17:51:42.304Z,5.12
2023-03-05T17:56:42.227Z,5.10
2023-03-05T18:01:42.200Z,5.08
2023-03-05T18:06:42.107Z,5.06
2023-03-05T18:11:43.045Z,5.04
2023-03-05T18:16:42.024Z,5.00
2023-03-05T18:21:41.921Z,4.97
2023-03-05T18:26:41.852Z,4.93
2023-03-05T18:31:41.784Z,4.90
2023-03-05T18:36:41.773Z,4.86
2023-03-05T18:41:41.817Z,4.82
2023-03-05T18:46:41.603Z,4.78
2023-03-05T18:51:41.545Z,4.75
2023-03-05T18:56:41.447Z,4.73
2023-03-05T19:01:41.485Z,4.72
2023-03-05T19:06:41.356Z,4.71
2023-03-05T19:11:41.271Z,4.70
2023-03-05T19:16:41.208Z,4.70
2023-03-05T19:21:41.171Z,4.69
2023-03-05T19:26:41.074Z,4.69
2023-03-05T19:31:41.036Z,4.69
2023-03-05T19:36:40.939Z,4.68
2023-03-05T19:41:40.874Z,4.68
2023-03-05T19:46:40.846Z,4.67
2023-03-05T19:51:40.791Z,4.67
2023-03-05T19:56:40.634Z,4.67
2023-03-05T20:01:40.658Z,4.68
2023-03-05T20:06:40.544Z,4.67
2023-03-05T20:11:40.483Z,4.65
2023-03-05T20:16:40.447Z,4.63
2023-03-05T20:21:40.368Z,4.59
2023-03-05T20:26:40.260Z,4.56
2023-03-05T20:31:40.261Z,4.53
2023-03-05T20:36:40.202Z,4.49
2023-03-05T20:41:40.111Z,4.46
2023-03-05T20:46:40.082Z,4.41
2023-03-05T20:51:39.977Z,4.38
2023-03-05T20:56:39.934Z,4.35
2023-03-05T21:01:39.944Z,4.33
2023-03-05T21:06:39.771Z,4.31
2023-03-05T21:11:39.718Z,4.30
2023-03-05T21:16:39.706Z,4.30
2023-03-05T21:21:39.605Z,4.29
2023-03-05T21:26:39.520Z,4.28
2023-03-05T21:31:39.459Z,4.28
2023-03-05T21:36:39.428Z,4.27
2023-03-05T21:41:39.317Z,4.27
2023-03-05T21:46:39.264Z,4.26
2023-03-05T21:51:39.198Z,4.26
2023-03-05T21:56:39.101Z,4.26
2023-03-05T22:01:39.094Z,4.25
2023-03-05T22:06:39.008Z,4.23
2023-03-05T22:11:38.926Z,4.19
2023-03-05T22:16:38.896Z,4.15
2023-03-05T22:21:38.854Z,4.12
2023-03-05T22:26:38.883Z,4.08
2023-03-05T22:31:38.712Z,4.05
2023-03-05T22:36:38.609Z,4.01
2023-03-05T22:41:38.558Z,3.98
2023-03-05T22:46:38.474Z,3.96
2023-03-05T22:51:38.436Z,3.94
2023-03-05T22:56:38.347Z,3.94
2023-03-05T23:01:38.292Z,3.94
2023-03-05T23:06:38.231Z,3.95
2023-03-05T23:11:38.174Z,3.95
2023-03-05T23:16:39.188Z,3.95
2023-03-05T23:21:38.074Z,3.95
2023-03-05T23:26:38.013Z,3.95
2023-03-05T23:31:38.040Z,3.96
2023-03-05T23:36:37.842Z,3.97
2023-03-05T23:41:37.802Z,3.97
2023-03-05T23:46:37.753Z,3.97
2023-03-05T23:51:37.686Z,3.99
2023-03-05T23:56:37.595Z,4.01
